Time;durP1;ratioP1;P1;durP2;ratioP2;P2;SDS_P1;SDS_P2;PMS_P1;PMS_P2;Temp;Humidity;BMP_temperature;BMP_pressure;BME280_temperature;BME280_humidity;BME280_pressure;Samples;Min_cycle;Max_cycle;Signal;HPM_P1;HPM_P2
2020/12/19 00:03:30;;;;;;;23.05;11.80;;;;;;;2.35;85.96;99755.23;261314;1101;23306;-74
2020/12/19 00:08:33;;;;;;;17.80;9.87;;;;;;;2.41;85.87;99754.42;261597;1101;23555;-75
2020/12/19 00:13:35;;;;;;;17.93;9.90;;;;;;;2.44;85.85;99743.41;261381;1101;23365;-74
2020/12/19 00:18:37;;;;;;;22.17;12.07;;;;;;;2.46;85.55;99741.36;261413;1101;23572;-76
2020/12/19 00:23:39;;;;;;;21.83;12.33;;;;;;;2.48;85.76;99739.33;261431;1101;23387;-76
2020/12/19 00:28:42;;;;;;;20.93;11.70;;;;;;;2.51;85.29;99730.16;261511;1101;23404;-76
2020/12/19 00:33:44;;;;;;;22.57;10.73;;;;;;;2.51;85.67;99730.16;261420;1101;26842;-74
2020/12/19 00:38:47;;;;;;;20.17;11.00;;;;;;;2.54;85.29;99730.53;261475;1101;23388;-75
2020/12/19 00:43:49;;;;;;;20.20;10.85;;;;;;;2.56;85.59;99733.80;261321;1101;23350;-76
2020/12/19 00:48:51;;;;;;;21.43;11.40;;;;;;;2.59;84.97;99737.02;261601;1101;23453;-75
2020/12/19 00:53:55;;;;;;;18.67;10.53;;;;;;;2.61;84.84;99738.44;261450;1101;23420;-77
2020/12/19 00:58:57;;;;;;;16.10;8.57;;;;;;;2.60;85.07;99749.23;261404;1101;23501;-75
2020/12/19 01:04:00;;;;;;;16.87;9.33;;;;;;;2.53;85.18;99752.73;261432;1101;23401;-76
2020/12/19 01:09:05;;;;;;;16.20;8.70;;;;;;;2.54;84.88;99733.17;261537;1101;23502;-75
2020/12/19 01:14:08;;;;;;;15.07;8.17;;;;;;;2.57;85.44;99737.23;261421;1101;23522;-76
2020/12/19 01:19:11;;;;;;;16.25;8.95;;;;;;;2.61;84.92;99741.08;261566;1101;24205;-75
2020/12/19 01:24:12;;;;;;;16.30;8.93;;;;;;;2.60;84.92;99736.81;261423;1101;23419;-75
2020/12/19 01:29:15;;;;;;;14.67;8.07;;;;;;;2.56;85.44;99733.80;261479;1101;23414;-75
2020/12/19 01:34:17;;;;;;;17.53;8.93;;;;;;;2.49;85.14;99725.09;261405;1101;23499;-75
2020/12/19 01:39:20;;;;;;;15.57;8.90;;;;;;;2.48;85.25;99734.03;261377;1101;23362;-74
2020/12/19 01:44:22;;;;;;;13.37;8.10;;;;;;;2.53;85.42;99725.45;261374;1101;23552;-75
2020/12/19 01:49:27;;;;;;;11.70;7.35;;;;;;;2.50;84.52;99708.17;261414;1102;23443;-75
2020/12/19 01:54:29;;;;;;;15.70;8.00;;;;;;;2.52;85.21;99694.77;261403;1101;28273;-75
2020/12/19 01:59:32;;;;;;;14.23;8.00;;;;;;;2.52;85.28;99692.91;261599;1101;27744;-75
2020/12/19 02:04:35;;;;;;;15.23;8.00;;;;;;;2.53;85.08;99693.72;261529;1101;23542;-75
2020/12/19 02:09:39;;;;;;;13.30;7.70;;;;;;;2.51;84.85;99682.55;261524;1101;23503;-76
2020/12/19 02:14:41;;;;;;;15.07;7.67;;;;;;;2.53;85.10;99680.48;261453;1101;23482;-75
2020/12/19 02:19:44;;;;;;;15.30;7.73;;;;;;;2.49;84.71;99687.23;261436;1101;23798;-75
2020/12/19 02:24:46;;;;;;;13.03;8.00;;;;;;;2.45;84.52;99686.86;261367;1101;23355;-75
2020/12/19 02:29:48;;;;;;;12.13;7.60;;;;;;;2.42;84.57;99692.58;261502;1101;24046;-75
2020/12/19 02:34:50;;;;;;;10.97;6.77;;;;;;;2.42;84.81;99687.29;261445;1101;23366;-74
2020/12/19 02:39:53;;;;;;;13.17;8.00;;;;;;;2.41;85.22;99680.37;261487;1097;23683;-75
2020/12/19 02:44:55;;;;;;;14.57;8.70;;;;;;;2.39;85.10;99671.82;261481;1101;23626;-75
2020/12/19 02:49:57;;;;;;;12.70;7.57;;;;;;;2.39;85.39;99672.66;261376;1101;23407;-76
2020/12/19 02:54:59;;;;;;;19.17;10.90;;;;;;;2.43;84.75;99674.86;261357;1101;23420;-75
2020/12/19 03:00:01;;;;;;;19.63;11.60;;;;;;;2.44;85.56;99682.58;261447;1101;23478;-75
2020/12/19 03:05:04;;;;;;;16.05;10.30;;;;;;;2.53;85.23;99672.55;261508;1101;23347;-74
2020/12/19 03:10:06;;;;;;;15.73;9.10;;;;;;;2.56;84.70;99666.83;261381;1101;23392;-74
2020/12/19 03:15:08;;;;;;;20.55;11.10;;;;;;;2.56;85.05;99656.25;261392;1101;23420;-75
2020/12/19 03:20:11;;;;;;;17.97;10.53;;;;;;;2.56;84.87;99657.08;261581;1101;23363;-75
2020/12/19 03:25:13;;;;;;;17.65;10.75;;;;;;;2.55;84.79;99646.72;261474;1101;23379;-75
2020/12/19 03:30:24;;;;;;;17.83;10.27;;;;;;;2.49;84.99;99639.62;261383;1101;23493;-75
2020/12/19 03:35:26;;;;;;;18.23;9.93;;;;;;;2.49;84.72;99635.16;261462;1101;24992;-75
2020/12/19 03:40:28;;;;;;;16.93;9.73;;;;;;;2.48;85.15;99622.95;262008;1101;23419;-75
2020/12/19 03:45:30;;;;;;;17.03;9.57;;;;;;;2.47;85.21;99628.45;261420;1101;23800;-77
2020/12/19 03:50:32;;;;;;;16.33;9.53;;;;;;;2.43;84.95;99614.84;261478;1101;23408;-75
2020/12/19 03:55:34;;;;;;;18.10;10.95;;;;;;;2.43;84.78;99611.39;261406;1101;23359;-76
2020/12/19 04:00:37;;;;;;;18.00;10.30;;;;;;;2.39;85.57;99603.06;261516;1101;27009;-76
2020/12/19 04:05:39;;;;;;;15.03;7.80;;;;;;;2.38;85.12;99590.89;261554;1101;23368;-75
2020/12/19 04:10:41;;;;;;;14.40;8.50;;;;;;;2.35;85.10;99597.41;261393;1101;23420;-75
2020/12/19 04:15:43;;;;;;;12.40;8.27;;;;;;;2.38;85.13;99590.89;261647;1101;23361;-74
2020/12/19 04:20:45;;;;;;;13.60;8.13;;;;;;;2.38;85.09;99585.59;261571;1101;23350;-75
2020/12/19 04:25:48;;;;;;;12.23;7.83;;;;;;;2.43;85.42;99583.09;261646;1101;23575;-75
2020/12/19 04:30:51;;;;;;;13.65;7.80;;;;;;;2.44;84.89;99581.28;261689;1101;23450;-74
2020/12/19 04:35:53;;;;;;;10.70;7.03;;;;;;;2.46;85.08;99581.87;261556;1101;23389;-75
2020/12/19 04:40:56;;;;;;;11.60;6.97;;;;;;;2.45;84.67;99586.36;261636;1101;23354;-74
2020/12/19 04:46:01;;;;;;;12.80;7.50;;;;;;;2.45;85.12;99577.59;261792;1101;23558;-75
2020/12/19 04:51:05;;;;;;;11.97;7.70;;;;;;;2.48;85.26;99583.28;261444;1101;23407;-75
2020/12/19 04:56:08;;;;;;;14.23;8.23;;;;;;;2.47;85.06;99588.78;261539;1101;23467;-75
2020/12/19 05:01:10;;;;;;;14.03;8.30;;;;;;;2.47;84.79;99581.65;261682;1101;23365;-75
2020/12/19 05:06:20;;;;;;;16.50;10.07;;;;;;;2.47;85.22;99578.20;261550;1101;23331;-75
2020/12/19 05:11:25;;;;;;;16.87;10.50;;;;;;;2.50;84.91;99585.70;261648;1101;23340;-75
2020/12/19 05:16:29;;;;;;;16.47;10.00;;;;;;;2.52;85.16;99581.82;261627;1101;23555;-75
2020/12/19 05:21:31;;;;;;;20.73;10.43;;;;;;;2.53;84.66;99586.09;261507;1101;23365;-75
2020/12/19 05:26:36;;;;;;;15.63;9.47;;;;;;;2.52;84.75;99592.41;261429;1101;23386;-75
2020/12/19 05:31:38;;;;;;;15.63;9.70;;;;;;;2.50;85.04;99589.15;261541;1101;23408;-76
2020/12/19 05:36:41;;;;;;;15.27;9.20;;;;;;;2.50;85.40;99589.15;261504;1101;23425;-75
2020/12/19 05:41:43;;;;;;;19.03;11.97;;;;;;;2.52;84.80;99584.47;261633;1101;23421;-75
2020/12/19 05:46:46;;;;;;;17.07;9.57;;;;;;;2.52;84.98;99592.41;261468;1101;23488;-75
2020/12/19 05:51:51;;;;;;;14.50;9.15;;;;;;;2.53;85.34;99594.03;261638;1101;23357;-75
2020/12/19 05:56:55;;;;;;;14.93;9.17;;;;;;;2.52;84.91;99597.70;261605;1101;26415;-75
2020/12/19 06:01:57;;;;;;;12.97;8.57;;;;;;;2.54;85.22;99608.05;261534;1101;28136;-75
2020/12/19 06:07:00;;;;;;;10.27;7.37;;;;;;;2.53;85.33;99603.78;261814;1101;23811;-75
2020/12/19 06:12:23;;;;;;;12.40;7.97;;;;;;;2.60;84.78;99604.53;261569;1101;23353;-76
2020/12/19 06:17:48;;;;;;;12.33;7.43;;;;;;;2.67;85.10;99612.43;261598;1101;24957;-75
2020/12/19 06:22:51;;;;;;;10.67;6.93;;;;;;;2.66;85.31;99610.80;261651;1102;23682;-75
2020/12/19 06:27:52;;;;;;;10.97;6.50;;;;;;;2.65;84.54;99606.56;261494;1101;26823;-75
2020/12/19 06:33:08;;;;;;;10.00;6.33;;;;;;;2.63;84.96;99620.00;261612;1101;23347;-74
2020/12/19 06:38:10;;;;;;;11.13;6.60;;;;;;;2.62;84.84;99622.87;261470;1101;23382;-75
2020/12/19 06:43:14;;;;;;;10.07;6.10;;;;;;;2.70;84.77;99627.87;261544;1101;26852;-75
2020/12/19 06:48:33;;;;;;;11.40;7.40;;;;;;;2.79;85.44;99639.81;261594;1101;28218;-74
2020/12/19 06:53:35;;;;;;;10.00;6.10;;;;;;;2.82;84.95;99642.02;261449;1101;23353;-75
2020/12/19 06:58:38;;;;;;;12.40;7.67;;;;;;;2.81;84.32;99639.59;261576;1101;23607;-75
2020/12/19 07:03:41;;;;;;;13.37;8.30;;;;;;;2.85;85.06;99646.08;261430;1101;23365;-74
2020/12/19 07:08:43;;;;;;;11.73;7.90;;;;;;;2.84;84.81;99653.22;261564;1101;26856;-74
2020/12/19 07:13:52;;;;;;;13.73;8.67;;;;;;;2.85;85.12;99656.66;261435;1101;23408;-74
2020/12/19 07:18:54;;;;;;;11.73;7.30;;;;;;;2.87;84.60;99649.34;261490;1101;23417;-74
2020/12/19 07:23:56;;;;;;;11.35;7.50;;;;;;;2.92;85.18;99654.77;261505;1101;23329;-74
2020/12/19 07:28:58;;;;;;;20.13;10.57;;;;;;;2.94;84.40;99654.55;261430;1101;23419;-75
2020/12/19 07:34:01;;;;;;;14.23;8.80;;;;;;;2.94;84.39;99646.61;261536;1101;23405;-74
2020/12/19 07:39:03;;;;;;;13.57;7.40;;;;;;;2.97;84.87;99657.59;261481;1101;23375;-75
2020/12/19 07:44:14;;;;;;;11.07;7.20;;;;;;;3.00;84.56;99646.56;261896;1101;23411;-76
2020/12/19 07:49:27;;;;;;;12.03;6.93;;;;;;;3.00;84.55;99656.34;262156;1101;24548;-77
2020/12/19 07:54:29;;;;;;;14.17;8.53;;;;;;;2.99;84.27;99647.58;262404;1101;23919;-76
2020/12/19 07:59:35;;;;;;;14.27;8.07;;;;;;;2.99;84.31;99649.42;261995;1101;23350;-77
2020/12/19 08:04:37;;;;;;;15.23;7.33;;;;;;;3.03;84.48;99654.06;262849;1101;23473;-76
2020/12/19 08:09:39;;;;;;;14.20;8.20;;;;;;;3.10;84.06;99646.07;261872;1101;23526;-76
2020/12/19 08:14:43;;;;;;;13.87;8.67;;;;;;;3.14;84.70;99635.86;261806;1101;23438;-76
2020/12/19 08:19:52;;;;;;;14.10;9.10;;;;;;;3.22;84.34;99643.53;261915;1096;23481;-76
2020/12/19 08:24:54;;;;;;;12.53;8.63;;;;;;;3.25;83.85;99643.89;262002;1101;23418;-76
2020/12/19 08:30:06;;;;;;;16.60;9.33;;;;;;;3.30;84.27;99650.37;262001;1101;26958;-76
2020/12/19 08:35:08;;;;;;;16.43;10.30;;;;;;;3.39;84.20;99649.86;262232;1101;23405;-76
2020/12/19 08:40:15;;;;;;;15.13;8.60;;;;;;;3.48;84.04;99644.28;262638;1101;23559;-77
2020/12/19 08:45:24;;;;;;;16.53;10.77;;;;;;;3.53;83.90;99641.80;262260;1101;23446;-76
2020/12/19 08:50:29;;;;;;;16.53;11.10;;;;;;;3.61;83.52;99636.20;262104;1101;23383;-76
2020/12/19 08:55:31;;;;;;;15.20;9.50;;;;;;;3.75;83.88;99639.52;261978;1101;23371;-76
2020/12/19 09:00:38;;;;;;;15.57;10.20;;;;;;;3.78;83.71;99633.77;262106;1101;23423;-76
2020/12/19 09:05:43;;;;;;;16.67;11.33;;;;;;;3.85;83.56;99639.78;262475;1101;23365;-76
2020/12/19 09:10:45;;;;;;;15.63;10.07;;;;;;;3.93;83.72;99647.44;262282;1101;26863;-78
2020/12/19 09:15:50;;;;;;;16.37;9.87;;;;;;;4.00;83.16;99641.23;262111;1101;23517;-76
2020/12/19 09:20:55;;;;;;;11.67;8.47;;;;;;;4.06;82.85;99629.75;261950;1102;23365;-77
2020/12/19 09:26:00;;;;;;;12.67;7.50;;;;;;;4.04;82.71;99618.55;261844;1101;23559;-77
2020/12/19 09:31:03;;;;;;;11.70;7.00;;;;;;;4.08;82.86;99617.86;261849;1101;24912;-77
2020/12/19 09:36:05;;;;;;;13.40;7.85;;;;;;;4.13;82.42;99609.25;262041;1101;23363;-76
2020/12/19 09:41:07;;;;;;;12.23;7.63;;;;;;;4.22;82.69;99601.77;261949;1101;23408;-76
2020/12/19 09:46:14;;;;;;;11.23;7.13;;;;;;;4.25;81.41;99603.97;262002;1101;23428;-77
2020/12/19 09:51:17;;;;;;;11.47;7.30;;;;;;;4.20;81.32;99602.00;262281;1101;23437;-76
2020/12/19 09:56:19;;;;;;;10.90;6.80;;;;;;;4.24;81.78;99592.56;262416;1096;23459;-76
2020/12/19 10:01:21;;;;;;;11.63;7.17;;;;;;;4.32;81.39;99591.41;261993;1101;23365;-77
2020/12/19 10:06:23;;;;;;;12.17;7.57;;;;;;;4.37;80.88;99590.75;262035;1101;23816;-77
2020/12/19 10:11:27;;;;;;;9.40;6.27;;;;;;;4.41;81.35;99591.92;261902;1101;23373;-77
2020/12/19 10:16:29;;;;;;;13.13;8.03;;;;;;;4.49;81.58;99593.42;261914;1101;25508;-77
2020/12/19 10:21:31;;;;;;;10.90;7.10;;;;;;;4.59;81.54;99588.38;262155;1101;23502;-76
2020/12/19 10:26:33;;;;;;;11.03;7.00;;;;;;;4.68;81.71;99596.81;261900;1101;23656;-77
2020/12/19 10:31:35;;;;;;;10.60;7.77;;;;;;;4.75;80.98;99589.54;262071;1101;23383;-77
2020/12/19 10:36:38;;;;;;;12.07;7.83;;;;;;;4.81;80.72;99577.98;261932;1101;23365;-77
2020/12/19 10:41:40;;;;;;;12.75;7.70;;;;;;;4.81;80.45;99572.68;262439;1101;23395;-77
2020/12/19 10:46:42;;;;;;;11.20;7.13;;;;;;;4.73;79.95;99568.53;262667;1101;23874;-76
2020/12/19 10:51:45;;;;;;;13.23;7.40;;;;;;;4.68;79.79;99562.30;262583;1101;23828;-77
2020/12/19 10:56:47;;;;;;;11.45;7.30;;;;;;;4.68;80.09;99560.45;262631;1096;23638;-77
2020/12/19 11:01:49;;;;;;;13.73;7.93;;;;;;;4.69;80.09;99556.77;262620;1101;23420;-76
2020/12/19 11:06:52;;;;;;;15.10;9.10;;;;;;;4.74;80.35;99554.23;262396;1097;23375;-76
2020/12/19 11:11:56;;;;;;;17.57;9.90;;;;;;;4.74;79.99;99548.92;262539;1101;23325;-76
2020/12/19 11:16:58;;;;;;;23.07;12.47;;;;;;;4.82;80.64;99549.61;265169;1101;23467;-76
2020/12/19 11:22:15;;;;;;;17.90;10.97;;;;;;;4.85;79.86;99541.98;262689;1101;23416;-76
2020/12/19 11:27:17;;;;;;;17.03;10.33;;;;;;;4.89;79.46;99540.48;262787;1101;23317;-76
2020/12/19 11:32:19;;;;;;;16.93;10.17;;;;;;;4.89;80.18;99544.98;262443;1101;23418;-76
2020/12/19 11:37:21;;;;;;;19.37;10.43;;;;;;;4.96;80.58;99549.13;262402;1101;23376;-76
2020/12/19 11:42:24;;;;;;;16.90;10.30;;;;;;;4.99;79.67;99545.20;262471;1101;23467;-75
2020/12/19 11:47:25;;;;;;;12.93;7.93;;;;;;;4.97;79.74;99539.33;262352;1096;23361;-76
2020/12/19 11:52:27;;;;;;;14.45;8.55;;;;;;;4.93;80.18;99538.97;262361;1101;23407;-76
2020/12/19 11:57:29;;;;;;;12.05;7.75;;;;;;;4.94;79.54;99542.45;262289;1100;23361;-75
2020/12/19 12:02:31;;;;;;;15.77;8.90;;;;;;;4.94;79.71;99545.91;262559;1101;23330;-77
2020/12/19 12:07:37;;;;;;;14.30;8.70;;;;;;;4.91;79.46;99534.93;262811;1101;23354;-77
2020/12/19 12:12:39;;;;;;;17.30;10.35;;;;;;;4.92;79.71;99531.25;262322;1097;23559;-77
2020/12/19 12:17:41;;;;;;;15.63;9.17;;;;;;;4.97;79.70;99521.54;262118;1096;23371;-77
2020/12/19 12:22:45;;;;;;;15.37;9.20;;;;;;;5.02;79.53;99520.83;262333;1101;23323;-77
2020/12/19 12:27:48;;;;;;;16.10;9.37;;;;;;;5.07;79.84;99510.33;262132;1101;23420;-77
2020/12/19 12:32:52;;;;;;;14.93;8.77;;;;;;;5.07;78.82;99512.98;262133;1096;24301;-77
2020/12/19 12:37:54;;;;;;;12.30;8.77;;;;;;;5.06;79.42;99502.59;262071;1101;23353;-77
2020/12/19 12:42:57;;;;;;;13.87;8.43;;;;;;;5.02;78.96;99512.06;262177;1093;24996;-78
2020/12/19 12:47:59;;;;;;;12.07;8.37;;;;;;;4.93;78.95;99509.77;262668;1096;23478;-77
2020/12/19 12:53:01;;;;;;;14.15;8.50;;;;;;;4.90;79.18;99506.78;262441;1101;23329;-77
2020/12/19 12:58:03;;;;;;;14.00;9.00;;;;;;;4.85;78.67;99509.32;262698;1101;23332;-77
2020/12/19 13:03:06;;;;;;;14.30;8.27;;;;;;;4.88;79.33;99522.95;262154;1101;23555;-77
2020/12/19 13:08:07;;;;;;;16.90;8.03;;;;;;;4.94;79.53;99515.91;262160;1097;23520;-77
2020/12/19 13:13:10;;;;;;;17.00;9.95;;;;;;;4.97;79.58;99510.12;262121;1101;23421;-78
2020/12/19 13:18:12;;;;;;;16.35;8.80;;;;;;;4.97;78.76;99505.61;262207;1093;23348;-78
2020/12/19 13:23:15;;;;;;;17.53;9.67;;;;;;;4.98;78.81;99514.41;262232;1097;23886;-77
2020/12/19 13:28:17;;;;;;;16.87;9.30;;;;;;;4.91;79.45;99519.83;262049;1101;23329;-78
2020/12/19 13:33:19;;;;;;;16.00;9.73;;;;;;;4.89;79.19;99519.23;262035;1101;23354;-77
2020/12/19 13:38:21;;;;;;;23.53;11.00;;;;;;;4.91;79.58;99517.17;262027;1101;23391;-77
2020/12/19 13:43:23;;;;;;;16.60;10.47;;;;;;;4.91;79.13;99522.48;262087;1101;23517;-77
2020/12/19 13:48:25;;;;;;;17.93;10.73;;;;;;;4.90;79.13;99526.17;262077;1096;23418;-77
2020/12/19 13:53:27;;;;;;;19.73;9.90;;;;;;;4.85;78.98;99527.91;262010;1101;23318;-77
2020/12/19 13:58:29;;;;;;;18.73;9.80;;;;;;;4.83;78.83;99536.11;262227;1096;23390;-77
2020/12/19 14:03:32;;;;;;;18.60;9.97;;;;;;;4.79;79.58;99530.44;262052;1101;23375;-77
2020/12/19 14:08:34;;;;;;;20.53;10.53;;;;;;;4.73;79.08;99538.52;262111;1094;23343;-78
2020/12/19 14:13:36;;;;;;;16.63;9.97;;;;;;;4.70;78.71;99546.94;262294;1096;23338;-77
2020/12/19 14:18:38;;;;;;;17.03;9.53;;;;;;;4.59;78.72;99546.72;262115;1101;23478;-77
2020/12/19 14:23:43;;;;;;;18.07;10.30;;;;;;;4.56;79.17;99544.53;262247;1096;23420;-77
2020/12/19 14:28:47;;;;;;;18.20;10.77;;;;;;;4.52;79.43;99543.37;262660;1101;23419;-75
2020/12/19 14:33:51;;;;;;;15.70;9.37;;;;;;;4.48;78.82;99546.69;262460;1096;23451;-77
2020/12/19 14:38:54;;;;;;;15.60;9.30;;;;;;;4.44;79.42;99554.31;262146;1099;23365;-77
2020/12/19 14:43:56;;;;;;;17.75;9.95;;;;;;;4.39;79.23;99552.36;262060;1101;23408;-78
2020/12/19 14:48:59;;;;;;;14.95;9.15;;;;;;;4.37;79.78;99545.66;262088;1101;23390;-76
2020/12/19 14:54:01;;;;;;;18.73;10.03;;;;;;;4.37;79.52;99548.31;262056;1101;23472;-77
2020/12/19 14:59:03;;;;;;;20.30;10.40;;;;;;;4.35;79.34;99550.37;262077;1101;23542;-77
2020/12/19 15:04:05;;;;;;;20.83;12.00;;;;;;;4.33;79.54;99549.80;262109;1101;23345;-77
2020/12/19 15:09:07;;;;;;;20.13;10.77;;;;;;;4.31;79.51;99546.55;262056;1097;23350;-78
2020/12/19 15:14:09;;;;;;;17.97;9.80;;;;;;;4.31;79.83;99541.25;262057;1096;23428;-77
2020/12/19 15:19:13;;;;;;;18.70;10.57;;;;;;;4.34;79.85;99541.61;262604;1101;23461;-78
2020/12/19 15:24:16;;;;;;;18.80;10.97;;;;;;;4.34;79.69;99546.09;262209;1101;23555;-77
2020/12/19 15:29:18;;;;;;;23.20;12.93;;;;;;;4.37;79.51;99548.31;261985;1097;23322;-77
2020/12/19 15:34:21;;;;;;;20.00;11.33;;;;;;;4.43;79.76;99550.03;262164;1094;24081;-78
2020/12/19 15:39:23;;;;;;;26.40;15.23;;;;;;;4.48;79.97;99547.52;262119;1101;23418;-78
2020/12/19 15:44:25;;;;;;;18.30;10.63;;;;;;;4.44;79.53;99549.01;262643;1097;23353;-77
2020/12/19 15:49:27;;;;;;;21.73;12.40;;;;;;;4.40;79.55;99553.16;262055;1101;23383;-77
2020/12/19 15:54:29;;;;;;;18.17;11.17;;;;;;;4.31;79.46;99551.86;262011;1097;23409;-78
2020/12/19 15:59:32;;;;;;;18.40;11.03;;;;;;;4.28;79.74;99556.59;262050;1097;26878;-77
2020/12/19 16:04:34;;;;;;;18.27;10.53;;;;;;;4.26;79.73;99553.34;262279;1101;23357;-77
2020/12/19 16:09:36;;;;;;;20.70;11.33;;;;;;;4.22;79.56;99551.38;262061;1096;23365;-77
2020/12/19 16:14:40;;;;;;;23.40;12.60;;;;;;;4.22;79.79;99552.18;262031;1101;23924;-76
2020/12/19 16:19:43;;;;;;;38.27;20.77;;;;;;;4.29;79.95;99552.09;262024;1101;23311;-77
2020/12/19 16:24:45;;;;;;;50.87;25.23;;;;;;;4.32;80.13;99554.28;262017;1101;26235;-77
2020/12/19 16:29:48;;;;;;;70.85;32.60;;;;;;;4.37;80.11;99550.97;261977;1101;23461;-78
2020/12/19 16:34:50;;;;;;;58.60;29.00;;;;;;;4.39;79.91;99552.36;262025;1101;23332;-77
2020/12/19 16:39:52;;;;;;;58.10;30.47;;;;;;;4.31;79.72;99557.16;262053;1101;23349;-78
2020/12/19 16:44:54;;;;;;;62.35;30.35;;;;;;;4.17;79.58;99553.90;261908;1101;23504;-78
2020/12/19 16:49:57;;;;;;;74.87;36.73;;;;;;;4.08;79.39;99559.52;262077;1101;23416;-78
2020/12/19 16:54:59;;;;;;;54.87;28.43;;;;;;;4.08;79.71;99556.07;262068;1101;23406;-77
2020/12/19 17:00:01;;;;;;;59.83;27.77;;;;;;;4.02;80.03;99549.03;262274;1097;24003;-76
2020/12/19 17:05:12;;;;;;;66.75;32.50;;;;;;;3.99;79.63;99546.81;262577;1101;23408;-76
2020/12/19 17:10:14;;;;;;;70.03;31.73;;;;;;;3.92;79.83;99563.63;262445;1101;23341;-76
2020/12/19 17:15:18;;;;;;;72.17;36.60;;;;;;;3.85;79.79;99554.17;262069;1101;24234;-76
2020/12/19 17:20:20;;;;;;;60.33;29.00;;;;;;;3.84;79.83;99553.34;261796;1101;23647;-76
2020/12/19 17:25:23;;;;;;;70.87;33.33;;;;;;;3.78;79.90;99562.20;261902;1101;23542;-77
2020/12/19 17:30:25;;;;;;;64.97;30.37;;;;;;;3.74;80.08;99561.83;261985;1101;23542;-77
2020/12/19 17:35:27;;;;;;;83.15;41.25;;;;;;;3.57;79.40;99556.34;262108;1101;23361;-77
2020/12/19 17:40:29;;;;;;;83.47;35.77;;;;;;;3.49;79.84;99543.39;262036;1101;23505;-77
2020/12/19 17:45:32;;;;;;;75.80;36.13;;;;;;;3.41;79.92;99527.80;262284;1096;23332;-77
2020/12/19 17:50:34;;;;;;;80.67;37.63;;;;;;;3.25;79.91;99534.52;262088;1093;23378;-77
2020/12/19 17:55:36;;;;;;;85.50;38.67;;;;;;;3.15;80.11;99540.33;262245;1101;26820;-76
2020/12/19 18:00:37;;;;;;;82.57;40.73;;;;;;;3.10;80.52;99537.52;262055;1101;26475;-77
2020/12/19 18:05:40;;;;;;;73.30;35.13;;;;;;;3.07;80.38;99538.77;262061;1101;23367;-77
2020/12/19 18:10:42;;;;;;;83.43;38.40;;;;;;;3.06;80.17;99541.64;262633;1097;23273;-75
2020/12/19 18:15:45;;;;;;;86.27;40.27;;;;;;;3.11;80.88;99551.59;262155;1101;23367;-76
2020/12/19 18:20:47;;;;;;;88.50;41.80;;;;;;;3.24;81.38;99557.52;262114;1100;28288;-76
2020/12/19 18:25:51;;;;;;;81.10;36.95;;;;;;;3.35;80.97;99573.72;262240;1101;23507;-77
2020/12/19 18:30:54;;;;;;;78.63;37.27;;;;;;;3.39;80.56;99575.70;262229;1101;24994;-77
2020/12/19 18:35:56;;;;;;;84.30;38.50;;;;;;;3.42;80.33;99569.16;262920;1101;23394;-77
2020/12/19 18:40:58;;;;;;;85.23;41.60;;;;;;;3.47;80.82;99564.02;262093;1101;28142;-76
2020/12/19 18:46:00;;;;;;;75.37;37.37;;;;;;;3.48;80.38;99560.31;262084;1097;23468;-77
2020/12/19 18:51:04;;;;;;;82.27;39.10;;;;;;;3.49;80.73;99559.28;261891;1101;23392;-77
2020/12/19 18:56:08;;;;;;;86.20;39.97;;;;;;;3.50;80.72;99560.08;262123;1096;23357;-77
2020/12/19 19:01:12;;;;;;;80.73;38.30;;;;;;;3.51;80.47;99554.59;262111;1096;23401;-77
2020/12/19 19:06:14;;;;;;;78.80;39.83;;;;;;;3.53;80.78;99565.77;262126;1101;23401;-77
2020/12/19 19:11:17;;;;;;;69.63;35.00;;;;;;;3.57;80.74;99564.28;262149;1101;23532;-77
2020/12/19 19:16:20;;;;;;;76.85;37.15;;;;;;;3.51;80.00;99570.48;262116;1101;23390;-77
2020/12/19 19:21:22;;;;;;;87.50;40.65;;;;;;;3.49;80.37;99569.09;262424;1101;23634;-77
2020/12/19 19:26:25;;;;;;;76.10;39.23;;;;;;;3.51;80.52;99573.13;262572;1096;23367;-77
2020/12/19 19:31:27;;;;;;;63.23;33.17;;;;;;;3.52;80.54;99587.98;262176;1096;23348;-77
2020/12/19 19:36:30;;;;;;;55.67;26.57;;;;;;;3.46;80.49;99572.98;262095;1097;23349;-77
2020/12/19 19:41:32;;;;;;;22.77;12.47;;;;;;;3.48;80.71;99584.16;262194;1101;27496;-76
2020/12/19 19:46:34;;;;;;;13.55;7.55;;;;;;;3.54;80.79;99587.75;262347;1101;23397;-76
2020/12/19 19:51:36;;;;;;;11.83;6.60;;;;;;;3.54;81.04;99593.05;262295;1101;23407;-77
2020/12/19 19:56:39;;;;;;;13.27;7.87;;;;;;;3.58;81.10;99592.41;262019;1096;23461;-78
2020/12/19 20:01:49;;;;;;;11.47;6.00;;;;;;;3.62;80.86;99586.66;262138;1096;25662;-76
2020/12/19 20:06:56;;;;;;;11.53;6.75;;;;;;;3.64;80.84;99593.36;262278;1101;23466;-77
2020/12/19 20:11:58;;;;;;;12.15;6.70;;;;;;;3.67;80.81;99597.41;261966;1101;23340;-76
2020/12/19 20:17:02;;;;;;;12.27;6.43;;;;;;;3.66;80.55;99598.43;262054;1101;23368;-76
2020/12/19 20:22:04;;;;;;;13.93;6.93;;;;;;;3.69;80.72;99600.62;262184;1101;23514;-77
2020/12/19 20:27:06;;;;;;;12.13;6.53;;;;;;;3.71;80.45;99598.58;261982;1096;23559;-77
2020/12/19 20:32:10;;;;;;;11.45;6.75;;;;;;;3.75;81.00;99589.16;262107;1097;23491;-75
2020/12/19 20:37:12;;;;;;;13.30;7.13;;;;;;;3.76;80.58;99598.70;262209;1096;23391;-77
2020/12/19 20:42:15;;;;;;;14.80;7.23;;;;;;;3.79;80.45;99592.16;262394;1101;23903;-76
2020/12/19 20:47:17;;;;;;;14.25;7.75;;;;;;;3.79;80.90;99602.75;262106;1093;23511;-77
2020/12/19 20:52:19;;;;;;;12.40;6.83;;;;;;;3.76;80.62;99606.66;262082;1101;26968;-77
2020/12/19 20:57:22;;;;;;;12.57;7.20;;;;;;;3.78;80.55;99599.30;262211;1101;23949;-76
2020/12/19 21:02:26;;;;;;;10.70;6.20;;;;;;;3.76;80.29;99598.70;262056;1101;23322;-77
2020/12/19 21:07:28;;;;;;;7.43;4.70;;;;;;;3.75;80.12;99592.61;262225;1101;24354;-76
2020/12/19 21:12:30;;;;;;;6.80;5.15;;;;;;;3.74;80.79;99603.43;262072;1101;23360;-76
2020/12/19 21:17:32;;;;;;;8.67;5.07;;;;;;;3.73;80.78;99594.66;262121;1101;23480;-77
2020/12/19 21:22:41;;;;;;;9.60;5.67;;;;;;;3.77;80.44;99593.17;262106;1101;26871;-77
2020/12/19 21:27:44;;;;;;;12.03;5.90;;;;;;;3.76;80.35;99586.28;262169;1101;23288;-77
2020/12/19 21:32:46;;;;;;;8.23;5.50;;;;;;;3.79;80.44;99595.60;262337;1101;23377;-78
2020/12/19 21:37:48;;;;;;;12.23;6.00;;;;;;;3.79;80.28;99590.30;262239;1101;23541;-77
2020/12/19 21:42:52;;;;;;;11.77;6.40;;;;;;;3.78;80.85;99599.30;262184;1101;23580;-76
2020/12/19 21:47:54;;;;;;;11.43;6.60;;;;;;;3.78;80.62;99599.30;262447;1101;23873;-76
2020/12/19 21:52:58;;;;;;;14.57;8.50;;;;;;;3.79;81.01;99602.75;262203;1093;23365;-76
2020/12/19 21:58:00;;;;;;;11.73;7.23;;;;;;;3.79;81.39;99606.20;262112;1093;26842;-77
2020/12/19 22:03:03;;;;;;;13.00;7.57;;;;;;;3.79;81.27;99606.20;262609;1096;23340;-77
2020/12/19 22:08:05;;;;;;;16.13;8.90;;;;;;;3.79;81.41;99605.41;262145;1101;23405;-77
2020/12/19 22:13:07;;;;;;;14.40;8.17;;;;;;;3.77;81.39;99605.63;262182;1093;23447;-76
2020/12/19 22:18:09;;;;;;;14.75;8.00;;;;;;;3.77;81.55;99608.28;262558;1101;23366;-77
2020/12/19 22:23:11;;;;;;;14.00;8.73;;;;;;;3.77;81.40;99611.73;262074;1101;23386;-77
2020/12/19 22:28:14;;;;;;;17.73;10.00;;;;;;;3.79;81.12;99605.41;262153;1101;24017;-76
2020/12/19 22:33:16;;;;;;;15.95;9.10;;;;;;;3.79;81.39;99600.11;262052;1101;23365;-76
2020/12/19 22:38:18;;;;;;;17.30;8.93;;;;;;;3.77;81.25;99597.68;261992;1101;23405;-76
2020/12/19 22:43:22;;;;;;;16.55;10.10;;;;;;;3.78;81.76;99596.66;262141;1096;24301;-76
2020/12/19 22:48:24;;;;;;;15.13;8.63;;;;;;;3.77;81.61;99595.03;262088;1101;23461;-77
2020/12/19 22:53:26;;;;;;;14.37;8.07;;;;;;;3.76;81.97;99594.23;262099;1101;23381;-77
2020/12/19 22:58:28;;;;;;;15.00;8.90;;;;;;;3.76;81.32;99596.87;262023;1101;23431;-76
2020/12/19 23:03:30;;;;;;;14.87;8.23;;;;;;;3.74;81.36;99598.92;262105;1093;24993;-76
2020/12/19 23:08:33;;;;;;;17.20;9.93;;;;;;;3.77;81.50;99597.68;262419;1101;23944;-76
2020/12/19 23:13:38;;;;;;;15.77;8.43;;;;;;;3.79;81.54;99595.60;262091;1096;27014;-77
2020/12/19 23:18:40;;;;;;;17.87;9.87;;;;;;;3.81;81.25;99593.55;262020;1101;23325;-77
2020/12/19 23:23:42;;;;;;;16.83;9.63;;;;;;;3.87;81.61;99591.84;262029;1101;24465;-77